Time;durP1;ratioP1;P1;durP2;ratioP2;P2;SDS_P1;SDS_P2;PMS_P1;PMS_P2;Temp;Humidity;BMP_temperature;BMP_pressure;BME280_temperature;BME280_humidity;BME280_pressure;Samples;Min_cycle;Max_cycle;Signal;HPM_P1;HPM_P2
2021/12/25 00:00:06;;;;;;;0.15;0.15;;;1.30;99.90;;;;;;5133712;27;20087;-84
2021/12/25 00:02:33;;;;;;;0.00;0.00;;;1.10;99.90;;;;;;5150624;27;20526;-84
2021/12/25 00:04:59;;;;;;;0.00;0.00;;;1.10;99.90;;;;;;5133398;27;20047;-84
2021/12/25 00:07:24;;;;;;;0.00;0.00;;;1.40;99.90;;;;;;5148157;27;20043;-84
2021/12/25 00:09:50;;;;;;;0.90;0.10;;;1.00;99.90;;;;;;5119608;27;20051;-84
2021/12/25 00:12:16;;;;;;;0.00;0.00;;;1.00;99.90;;;;;;5137083;27;20047;-85
2021/12/25 00:14:41;;;;;;;0.00;0.00;;;1.00;99.90;;;;;;5119920;27;20046;-84
2021/12/25 00:17:07;;;;;;;0.10;0.00;;;1.10;99.90;;;;;;5119856;27;20487;-85
2021/12/25 00:19:33;;;;;;;0.00;0.00;;;0.90;99.90;;;;;;5137483;27;20390;-84
2021/12/25 00:22:00;;;;;;;0.82;0.63;;;0.90;99.90;;;;;;5120524;27;20047;-84
2021/12/25 00:24:26;;;;;;;0.00;0.00;;;0.80;99.90;;;;;;5119806;27;20490;-84
2021/12/25 00:34:34;;;;;;;0.00;0.00;;;0.80;99.90;;;;;;5136974;27;20047;-84
2021/12/25 00:37:00;;;;;;;0.00;0.00;;;1.00;99.90;;;;;;5120362;27;20108;-84
2021/12/25 00:39:29;;;;;;;0.43;0.00;;;1.20;99.90;;;;;;5120964;27;20043;-83
2021/12/25 00:41:58;;;;;;;0.00;0.00;;;0.80;99.90;;;;;;5120358;27;20079;-84
2021/12/25 00:44:25;;;;;;;0.00;0.00;;;0.70;99.90;;;;;;5119979;27;20082;-83
2021/12/25 00:46:51;;;;;;;0.00;0.00;;;0.70;99.90;;;;;;5119613;27;20055;-84
2021/12/25 00:49:17;;;;;;;0.00;0.00;;;0.70;99.90;;;;;;5119498;27;20047;-84
2021/12/25 00:51:42;;;;;;;0.00;0.00;;;0.70;99.90;;;;;;5136575;27;20047;-84
2021/12/25 00:54:09;;;;;;;0.00;0.00;;;0.70;99.90;;;;;;5119997;27;20075;-84
2021/12/25 00:56:35;;;;;;;0.00;0.00;;;0.60;99.90;;;;;;5119753;27;20398;-84
2021/12/25 00:59:01;;;;;;;0.30;0.30;;;0.60;99.90;;;;;;5120104;27;20051;-83
2021/12/25 01:01:27;;;;;;;4.80;1.08;;;0.50;99.90;;;;;;5119702;27;20039;-84
2021/12/25 01:03:52;;;;;;;0.00;0.00;;;0.60;99.90;;;;;;5119159;27;20053;-84
2021/12/25 01:06:18;;;;;;;0.00;0.00;;;0.50;99.90;;;;;;5135759;27;20039;-83
2021/12/25 01:08:44;;;;;;;0.00;0.00;;;0.50;99.90;;;;;;5118318;27;20087;-84
2021/12/25 01:11:10;;;;;;;0.00;0.00;;;0.40;99.90;;;;;;5118564;27;20128;-83
2021/12/25 01:13:41;;;;;;;0.00;0.00;;;0.80;99.90;;;;;;5118146;27;20035;-84
2021/12/25 01:31:44;;;;;;;0.00;0.00;;;0.20;99.90;;;;;;5135209;27;20047;-83
2021/12/25 01:34:34;;;;;;;0.00;0.00;;;0.40;99.90;;;;;;5118165;27;20047;-83
2021/12/25 01:49:49;;;;;;;0.43;0.28;;;0.00;99.90;;;;;;5135532;27;20043;-82
2021/12/25 01:52:14;;;;;;;0.00;0.00;;;0.00;99.90;;;;;;5117804;27;20055;-82
2021/12/25 01:54:40;;;;;;;0.57;0.15;;;0.00;99.90;;;;;;5117438;27;20053;-82
2021/12/25 01:57:08;;;;;;;0.00;0.00;;;0.00;99.90;;;;;;5133942;27;20124;-82
2021/12/25 01:59:34;;;;;;;0.00;0.00;;;0.00;99.90;;;;;;5134684;27;20099;-82
2021/12/25 02:02:00;;;;;;;0.00;0.00;;;-0.10;99.90;;;;;;5117324;27;20116;-82
2021/12/25 02:04:25;;;;;;;0.00;0.00;;;-0.10;99.90;;;;;;5117147;27;20466;-82
2021/12/25 02:06:51;;;;;;;0.00;0.00;;;-0.20;99.90;;;;;;5134195;27;20039;-82
2021/12/25 02:09:17;;;;;;;0.00;0.00;;;-0.20;99.90;;;;;;5117095;27;20054;-82
2021/12/25 02:11:43;;;;;;;0.00;0.00;;;-0.20;99.90;;;;;;5117542;27;20042;-81
2021/12/25 02:14:09;;;;;;;1.45;0.55;;;-0.30;99.90;;;;;;5134221;27;20089;-82
2021/12/25 02:16:51;;;;;;;0.00;0.00;;;-0.40;99.90;;;;;;5116912;27;20142;-82
2021/12/25 02:19:31;;;;;;;0.00;0.00;;;0.00;99.90;;;;;;5134522;27;20046;-82
2021/12/25 02:22:00;;;;;;;0.00;0.00;;;-0.40;99.90;;;;;;5134091;27;20043;-82
2021/12/25 02:24:26;;;;;;;0.20;0.20;;;-0.50;99.90;;;;;;5117134;27;20042;-81
2021/12/25 02:26:52;;;;;;;0.00;0.00;;;-0.50;99.90;;;;;;5116762;27;20444;-81
2021/12/25 02:29:18;;;;;;;0.00;0.00;;;-0.50;99.90;;;;;;5134076;27;20130;-81
2021/12/25 02:31:43;;;;;;;0.00;0.00;;;-0.50;99.90;;;;;;5133416;27;20047;-81
2021/12/25 02:34:09;;;;;;;0.00;0.00;;;-0.50;99.90;;;;;;5133872;27;20079;-81
2021/12/25 02:36:35;;;;;;;0.00;0.00;;;-0.60;99.90;;;;;;5116643;27;20070;-81
2021/12/25 02:39:01;;;;;;;0.00;0.00;;;-0.70;99.90;;;;;;5116414;27;20042;-81
2021/12/25 02:41:27;;;;;;;0.00;0.00;;;-0.50;99.90;;;;;;5116631;27;20510;-81
2021/12/25 02:43:52;;;;;;;0.00;0.00;;;-0.70;99.90;;;;;;5133563;27;20051;-81
2021/12/25 02:46:18;;;;;;;0.00;0.00;;;-0.80;99.90;;;;;;5117308;27;20077;-81
2021/12/25 02:48:44;;;;;;;0.00;0.00;;;-0.80;99.90;;;;;;5116328;28;20099;-81
2021/12/25 02:51:11;;;;;;;0.00;0.00;;;-0.80;99.90;;;;;;5116421;27;20055;-81
2021/12/25 02:53:38;;;;;;;0.00;0.00;;;-0.90;99.90;;;;;;5116356;28;20394;-81
2021/12/25 02:56:05;;;;;;;0.00;0.00;;;-0.90;99.90;;;;;;5116273;28;20043;-81
2021/12/25 02:58:31;;;;;;;0.57;0.22;;;-0.90;99.90;;;;;;5116275;27;20061;-81
2021/12/25 03:01:02;;;;;;;0.00;0.00;;;-1.00;99.90;;;;;;5116487;28;20138;-81
2021/12/25 03:03:28;;;;;;;0.00;0.00;;;-0.90;99.90;;;;;;5133862;27;20459;-81
2021/12/25 03:05:54;;;;;;;0.10;0.10;;;-1.00;99.90;;;;;;5133653;28;20078;-81
2021/12/25 03:08:22;;;;;;;0.00;0.00;;;-1.10;99.90;;;;;;5115983;28;20050;-82
2021/12/25 03:10:49;;;;;;;0.00;0.00;;;-1.10;99.90;;;;;;5133247;27;20042;-81
2021/12/25 03:13:29;;;;;;;0.00;0.00;;;-1.20;99.90;;;;;;5116319;28;20043;-81
2021/12/25 03:15:55;;;;;;;0.00;0.00;;;-1.20;99.90;;;;;;5115620;28;20502;-81
2021/12/25 03:18:36;;;;;;;0.00;0.00;;;-1.20;99.90;;;;;;5133273;27;20039;-81
2021/12/25 03:21:05;;;;;;;0.00;0.00;;;-1.30;99.90;;;;;;5133315;27;20047;-82
2021/12/25 03:23:32;;;;;;;0.00;0.00;;;-1.30;99.90;;;;;;5116134;28;20047;-82
2021/12/25 03:26:00;;;;;;;0.00;0.00;;;-1.40;99.90;;;;;;5116157;28;20509;-82
2021/12/25 03:28:30;;;;;;;2.53;0.90;;;-1.40;99.90;;;;;;5116167;28;20047;-82
2021/12/25 03:31:04;;;;;;;0.00;0.00;;;-1.40;99.90;;;;;;5116497;28;20043;-82
2021/12/25 03:33:30;;;;;;;0.00;0.00;;;-1.50;99.90;;;;;;5117302;28;20112;-82
2021/12/25 03:35:56;;;;;;;0.00;0.00;;;-1.50;99.90;;;;;;5117161;28;20055;-82
2021/12/25 03:38:22;;;;;;;0.00;0.00;;;-1.50;99.90;;;;;;5134283;27;20040;-82
2021/12/25 03:40:50;;;;;;;0.00;0.00;;;-1.50;99.90;;;;;;5116859;28;20091;-82
2021/12/25 03:43:17;;;;;;;0.00;0.00;;;-1.50;99.90;;;;;;5118766;27;20039;-82
2021/12/25 03:45:44;;;;;;;0.00;0.00;;;-1.50;99.90;;;;;;5138355;27;20047;-82
2021/12/25 03:48:56;;;;;;;0.00;0.00;;;-1.60;99.90;;;;;;5138291;27;20040;-83
2021/12/25 03:59:09;;;;;;;0.00;0.00;;;-1.80;99.90;;;;;;5137667;27;20509;-82
2021/12/25 04:04:09;;;;;;;0.00;0.00;;;-1.50;99.90;;;;;;5137828;27;20058;-82
2021/12/25 04:06:44;;;;;;;0.00;0.00;;;-1.80;99.90;;;;;;5120760;27;20371;-82
2021/12/25 04:09:22;;;;;;;0.00;0.00;;;-1.80;99.90;;;;;;5120146;27;20406;-82
2021/12/25 04:11:48;;;;;;;0.00;0.00;;;-1.90;99.90;;;;;;5120354;27;20092;-82
2021/12/25 04:14:14;;;;;;;0.10;0.10;;;-1.90;99.90;;;;;;5137517;27;20112;-82
2021/12/25 04:16:40;;;;;;;0.00;0.00;;;-1.90;99.90;;;;;;5120221;27;20470;-82
2021/12/25 04:19:06;;;;;;;0.00;0.00;;;-2.00;99.90;;;;;;5120452;27;20088;-82
2021/12/25 04:21:32;;;;;;;0.00;0.00;;;-2.00;99.90;;;;;;5119923;27;20076;-82
2021/12/25 04:23:58;;;;;;;0.00;0.00;;;-1.90;99.90;;;;;;5137439;27;20075;-82
2021/12/25 04:26:25;;;;;;;0.00;0.00;;;-2.00;99.90;;;;;;5137404;27;20058;-82
2021/12/25 04:48:54;;;;;;;0.00;0.00;;;-2.30;99.90;;;;;;5137235;27;20055;-82
2021/12/25 05:05:56;;;;;;;0.00;0.00;;;-2.40;99.90;;;;;;5136273;27;20138;-82
2021/12/25 05:08:21;;;;;;;0.00;0.00;;;-2.30;99.90;;;;;;5119357;27;20047;-82
2021/12/25 05:10:47;;;;;;;0.00;0.00;;;-2.40;99.90;;;;;;5119438;27;20058;-82
2021/12/25 05:13:13;;;;;;;0.00;0.00;;;-2.50;99.90;;;;;;5136525;27;20099;-82
2021/12/25 05:15:39;;;;;;;0.35;0.35;;;-2.50;99.90;;;;;;5136153;27;20130;-82
2021/12/25 05:18:06;;;;;;;0.00;0.00;;;-2.50;99.90;;;;;;5118911;27;20039;-82
2021/12/25 05:20:32;;;;;;;0.00;0.00;;;-2.50;99.90;;;;;;5119561;27;20101;-82
2021/12/25 05:22:58;;;;;;;0.00;0.00;;;-2.40;99.90;;;;;;5119304;27;20078;-82
2021/12/25 05:25:23;;;;;;;0.00;0.00;;;-2.60;99.90;;;;;;5136204;27;20090;-82
2021/12/25 05:27:50;;;;;;;0.00;0.00;;;-2.50;99.90;;;;;;5136405;27;20545;-82
2021/12/25 05:30:18;;;;;;;0.00;0.00;;;-2.50;99.90;;;;;;5135753;27;20140;-83
2021/12/25 05:32:44;;;;;;;0.00;0.00;;;-2.50;99.90;;;;;;5118790;27;20047;-82
2021/12/25 05:35:09;;;;;;;0.00;0.00;;;-2.60;99.90;;;;;;5119483;27;20043;-82
2021/12/25 05:37:35;;;;;;;0.35;0.35;;;-2.60;99.90;;;;;;5136188;27;20483;-82
2021/12/25 05:40:03;;;;;;;0.00;0.00;;;-2.60;99.90;;;;;;5119403;27;20047;-82
2021/12/25 05:42:29;;;;;;;0.00;0.00;;;-2.60;99.90;;;;;;5119405;27;20081;-82
2021/12/25 05:44:55;;;;;;;0.00;0.00;;;-2.60;99.90;;;;;;5135990;27;20039;-82
2021/12/25 05:47:21;;;;;;;0.00;0.00;;;-2.50;99.90;;;;;;5118532;27;20043;-82
2021/12/25 05:49:46;;;;;;;0.00;0.00;;;-2.60;99.90;;;;;;5135320;27;20047;-82
2021/12/25 05:52:13;;;;;;;0.00;0.00;;;-2.50;99.90;;;;;;5135445;27;20072;-82
2021/12/25 05:54:38;;;;;;;0.00;0.00;;;-2.60;99.90;;;;;;5118464;27;20047;-82
2021/12/25 05:57:04;;;;;;;0.00;0.00;;;-2.60;99.90;;;;;;5117818;27;20057;-82
2021/12/25 05:59:30;;;;;;;0.00;0.00;;;-2.60;99.90;;;;;;5118289;27;20058;-82
2021/12/25 06:01:56;;;;;;;0.00;0.00;;;-2.60;99.90;;;;;;5117945;27;20050;-82
2021/12/25 06:04:22;;;;;;;0.00;0.00;;;-2.60;99.90;;;;;;5118473;27;20398;-82
2021/12/25 06:06:47;;;;;;;0.00;0.00;;;-2.60;99.90;;;;;;5117887;27;20051;-83
2021/12/25 06:09:13;;;;;;;0.00;0.00;;;-2.60;99.90;;;;;;5134842;27;20096;-82
2021/12/25 06:11:39;;;;;;;0.00;0.00;;;-2.20;99.90;;;;;;5118279;27;20054;-82
2021/12/25 06:14:11;;;;;;;0.00;0.00;;;-2.70;99.90;;;;;;5135253;27;20125;-83
2021/12/25 06:16:37;;;;;;;0.00;0.00;;;-2.70;99.90;;;;;;5118395;27;20035;-82
2021/12/25 06:19:04;;;;;;;0.00;0.00;;;-2.70;99.90;;;;;;5118292;27;20451;-82
2021/12/25 06:21:33;;;;;;;0.00;0.00;;;-2.70;99.90;;;;;;5135420;27;20131;-82
2021/12/25 06:24:01;;;;;;;0.00;0.00;;;-2.80;99.90;;;;;;5135260;27;20047;-82
2021/12/25 06:26:28;;;;;;;0.00;0.00;;;-2.80;99.90;;;;;;5135121;27;20055;-82
2021/12/25 06:28:54;;;;;;;0.00;0.00;;;-2.80;99.90;;;;;;5117991;27;20073;-82
2021/12/25 06:31:21;;;;;;;0.00;0.00;;;-2.80;99.90;;;;;;5135048;27;20075;-82
2021/12/25 06:33:46;;;;;;;0.00;0.00;;;-2.80;99.90;;;;;;5117946;27;20055;-82
2021/12/25 06:36:12;;;;;;;0.00;0.00;;;-2.80;99.90;;;;;;5117843;27;20146;-82
2021/12/25 06:38:40;;;;;;;0.00;0.00;;;-2.40;99.90;;;;;;5118186;27;20141;-81
2021/12/25 06:41:07;;;;;;;0.08;0.08;;;-2.90;99.90;;;;;;5117772;27;20047;-81
2021/12/25 06:43:33;;;;;;;0.00;0.00;;;-2.90;99.90;;;;;;5117720;27;20058;-82
2021/12/25 06:45:59;;;;;;;0.00;0.00;;;-2.90;99.90;;;;;;5117492;28;20051;-82
2021/12/25 06:48:26;;;;;;;0.00;0.00;;;-2.90;99.90;;;;;;5117324;28;20062;-82
2021/12/25 06:50:52;;;;;;;0.00;0.00;;;-3.00;99.90;;;;;;5117928;28;20047;-81
2021/12/25 06:53:18;;;;;;;0.00;0.00;;;-3.00;99.90;;;;;;5117874;28;20054;-82
2021/12/25 06:55:43;;;;;;;0.00;0.00;;;-2.80;99.90;;;;;;5117804;28;20134;-82
2021/12/25 06:58:09;;;;;;;0.00;0.00;;;-3.00;99.90;;;;;;5117202;28;20059;-82
2021/12/25 07:00:35;;;;;;;0.00;0.00;;;-3.00;99.90;;;;;;5117910;28;20039;-82
2021/12/25 07:03:01;;;;;;;0.00;0.00;;;-3.10;99.90;;;;;;5134840;28;20047;-83
2021/12/25 07:05:26;;;;;;;0.00;0.00;;;-3.10;99.90;;;;;;5117451;28;20439;-83
2021/12/25 07:07:52;;;;;;;0.00;0.00;;;-3.10;99.90;;;;;;5117660;28;20390;-83
2021/12/25 07:10:18;;;;;;;0.00;0.00;;;-3.20;99.90;;;;;;5117546;28;20077;-83
2021/12/25 07:12:47;;;;;;;0.00;0.00;;;-3.10;99.90;;;;;;5134053;27;20402;-82
2021/12/25 07:15:14;;;;;;;0.00;0.00;;;-3.20;99.90;;;;;;5117583;28;20055;-83
2021/12/25 07:17:40;;;;;;;0.00;0.00;;;-3.20;99.90;;;;;;5117360;27;20046;-82
2021/12/25 07:20:06;;;;;;;0.00;0.00;;;-3.20;99.90;;;;;;5121362;27;20051;-83
2021/12/25 07:22:32;;;;;;;0.00;0.00;;;-3.20;99.90;;;;;;5121640;27;20500;-82
2021/12/25 07:24:58;;;;;;;0.00;0.00;;;-3.20;99.90;;;;;;5138642;27;20039;-82
2021/12/25 07:27:24;;;;;;;0.00;0.00;;;-3.20;99.90;;;;;;5121605;27;20046;-83
2021/12/25 07:29:50;;;;;;;0.00;0.00;;;-3.30;99.90;;;;;;5138364;27;20051;-83
2021/12/25 07:32:16;;;;;;;0.00;0.00;;;-3.30;99.90;;;;;;5121501;27;20485;-82
2021/12/25 07:34:45;;;;;;;0.00;0.00;;;-3.30;99.90;;;;;;5121019;27;20058;-82
2021/12/25 07:37:13;;;;;;;0.00;0.00;;;-3.30;99.90;;;;;;5121222;27;20084;-83
2021/12/25 07:39:38;;;;;;;0.00;0.00;;;-3.30;99.90;;;;;;5138166;27;20039;-82
2021/12/25 07:42:04;;;;;;;0.00;0.00;;;-3.30;99.90;;;;;;5121359;27;20092;-83
2021/12/25 07:44:30;;;;;;;0.00;0.00;;;-3.30;99.90;;;;;;5138166;27;20039;-83
2021/12/25 07:46:56;;;;;;;0.00;0.00;;;-3.30;99.90;;;;;;5120528;27;20142;-83
2021/12/25 07:49:22;;;;;;;0.00;0.00;;;-3.30;99.90;;;;;;5120945;27;20046;-83
2021/12/25 07:51:48;;;;;;;0.32;0.32;;;-3.30;99.90;;;;;;5138079;27;20051;-83
2021/12/25 07:54:14;;;;;;;0.13;0.05;;;-3.30;99.90;;;;;;5138015;27;20047;-82
2021/12/25 07:56:40;;;;;;;0.00;0.00;;;-3.30;99.90;;;;;;5120609;27;20043;-83
2021/12/25 07:59:06;;;;;;;0.00;0.00;;;-3.30;99.90;;;;;;5120623;27;20150;-83
2021/12/25 08:01:34;;;;;;;0.73;0.73;;;-3.30;99.90;;;;;;5138214;27;20043;-83
2021/12/25 08:04:04;;;;;;;0.00;0.00;;;-3.30;99.90;;;;;;5120547;27;20050;-83
2021/12/25 08:06:30;;;;;;;0.00;0.00;;;-3.30;99.90;;;;;;5120442;27;20081;-84
2021/12/25 08:09:01;;;;;;;0.00;0.00;;;-3.20;99.90;;;;;;5121140;27;20070;-83
2021/12/25 08:11:28;;;;;;;0.00;0.00;;;-3.30;99.90;;;;;;5120774;27;20054;-83
2021/12/25 08:13:54;;;;;;;0.00;0.00;;;-3.30;99.90;;;;;;5120390;27;20506;-83
2021/12/25 08:16:20;;;;;;;0.00;0.00;;;-3.20;99.90;;;;;;5137418;27;20125;-83
2021/12/25 08:18:46;;;;;;;0.00;0.00;;;-2.90;99.90;;;;;;5120542;27;20525;-83
2021/12/25 08:21:13;;;;;;;0.00;0.00;;;-3.30;99.90;;;;;;5120207;27;20432;-83
2021/12/25 08:23:39;;;;;;;0.00;0.00;;;-2.60;99.90;;;;;;5120297;27;20129;-83
2021/12/25 08:26:06;;;;;;;0.00;0.00;;;-3.20;99.90;;;;;;5132553;27;20434;-85
2021/12/25 08:28:32;;;;;;;0.00;0.00;;;-3.20;99.90;;;;;;5109193;27;20084;-83
2021/12/25 08:30:58;;;;;;;0.00;0.00;;;-3.20;99.90;;;;;;5123579;27;20051;-83
2021/12/25 08:33:24;;;;;;;0.00;0.00;;;-3.20;99.90;;;;;;5126171;27;20529;-82
2021/12/25 08:35:49;;;;;;;0.00;0.00;;;-3.20;99.90;;;;;;5109458;27;20047;-84
2021/12/25 08:38:15;;;;;;;0.00;0.00;;;-3.20;99.90;;;;;;5124008;27;20119;-85
2021/12/25 08:40:43;;;;;;;0.00;0.00;;;-3.10;99.90;;;;;;5106733;27;20039;-83
2021/12/25 08:43:09;;;;;;;0.00;0.00;;;-3.10;99.90;;;;;;5109191;27;20055;-82
2021/12/25 08:45:46;;;;;;;0.00;0.00;;;-3.10;99.90;;;;;;5107203;27;20043;-83
2021/12/25 08:48:19;;;;;;;0.00;0.00;;;-3.10;99.90;;;;;;5123758;27;20051;-84
2021/12/25 08:50:58;;;;;;;0.00;0.00;;;-3.10;99.90;;;;;;5106724;27;20059;-84
2021/12/25 08:53:26;;;;;;;0.00;0.00;;;-3.00;99.90;;;;;;5108978;27;20043;-84
2021/12/25 08:55:54;;;;;;;0.00;0.00;;;-3.00;99.90;;;;;;5105278;27;20043;-84
2021/12/25 08:58:21;;;;;;;0.00;0.00;;;-2.90;99.90;;;;;;5133358;27;20122;-83
2021/12/25 09:00:50;;;;;;;0.00;0.00;;;-2.90;99.90;;;;;;5124038;27;20429;-83
2021/12/25 09:03:16;;;;;;;0.00;0.00;;;-2.80;99.90;;;;;;5126990;27;20483;-83
2021/12/25 09:05:42;;;;;;;0.00;0.00;;;-1.90;99.90;;;;;;5121593;27;20084;-86
2021/12/25 09:08:08;;;;;;;0.00;0.00;;;-1.80;99.90;;;;;;5120929;27;20039;-85
2021/12/25 09:10:35;;;;;;;0.00;0.00;;;-1.30;99.90;;;;;;5108357;28;20128;-82
2021/12/25 09:13:01;;;;;;;0.00;0.00;;;-1.60;99.90;;;;;;5117030;27;20089;-83
2021/12/25 09:15:27;;;;;;;0.00;0.00;;;-1.70;99.90;;;;;;5118466;27;20131;-83
2021/12/25 09:17:53;;;;;;;0.00;0.00;;;-1.70;99.90;;;;;;5118424;27;20039;-83
2021/12/25 09:20:21;;;;;;;0.00;0.00;;;-1.60;99.90;;;;;;5135307;27;20095;-83
2021/12/25 09:22:48;;;;;;;0.00;0.00;;;-1.40;99.90;;;;;;5118388;27;20043;-83
2021/12/25 09:25:14;;;;;;;0.00;0.00;;;-1.40;99.30;;;;;;5118210;27;20059;-83
2021/12/25 09:27:41;;;;;;;0.00;0.00;;;-1.20;99.00;;;;;;5135498;27;20047;-83
2021/12/25 09:30:08;;;;;;;0.00;0.00;;;-0.90;96.80;;;;;;5117902;27;20521;-83
2021/12/25 09:32:34;;;;;;;0.00;0.00;;;-0.70;96.60;;;;;;5118280;27;20486;-83
2021/12/25 09:35:00;;;;;;;0.00;0.00;;;-0.50;96.90;;;;;;5135187;27;20045;-83
2021/12/25 09:37:27;;;;;;;0.00;0.00;;;-0.50;96.80;;;;;;5117704;27;20054;-83
2021/12/25 09:39:54;;;;;;;0.00;0.00;;;0.10;95.90;;;;;;5134874;27;20064;-83
2021/12/25 09:42:22;;;;;;;0.00;0.00;;;1.00;92.60;;;;;;5117003;27;20398;-83
2021/12/25 09:44:48;;;;;;;0.00;0.00;;;1.10;90.90;;;;;;5117759;27;20136;-84
2021/12/25 09:47:14;;;;;;;0.00;0.00;;;1.80;88.30;;;;;;5117641;27;20486;-84
2021/12/25 09:49:40;;;;;;;0.00;0.00;;;1.50;81.40;;;;;;5117584;27;20043;-83
2021/12/25 09:52:06;;;;;;;0.00;0.00;;;2.00;78.20;;;;;;5117379;27;20083;-83
2021/12/25 09:54:32;;;;;;;0.00;0.00;;;2.10;78.00;;;;;;5117521;27;20042;-84
2021/12/25 09:56:58;;;;;;;0.00;0.00;;;2.40;75.30;;;;;;5116975;27;20481;-84
2021/12/25 09:59:24;;;;;;;0.00;0.00;;;2.70;73.80;;;;;;5117284;27;20489;-84
2021/12/25 10:01:54;;;;;;;0.00;0.00;;;2.60;75.20;;;;;;5117317;27;20057;-84
2021/12/25 10:04:43;;;;;;;0.00;0.00;;;2.70;74.10;;;;;;5117239;27;20188;-84
2021/12/25 10:07:18;;;;;;;0.00;0.00;;;2.50;71.50;;;;;;5117200;27;20050;-84
2021/12/25 10:10:00;;;;;;;0.00;0.00;;;2.00;72.60;;;;;;5117381;27;20553;-84
2021/12/25 10:12:44;;;;;;;0.00;0.00;;;1.80;76.50;;;;;;5134804;27;20390;-84
2021/12/25 10:15:17;;;;;;;0.00;0.00;;;1.70;75.80;;;;;;5117095;27;20082;-84
2021/12/25 10:17:52;;;;;;;0.00;0.00;;;1.70;76.40;;;;;;5116734;27;20470;-84
2021/12/25 10:20:24;;;;;;;0.00;0.00;;;1.50;77.90;;;;;;5117098;27;20474;-84
2021/12/25 10:23:11;;;;;;;0.00;0.00;;;1.30;75.60;;;;;;5116981;27;20054;-84
2021/12/25 10:25:55;;;;;;;0.00;0.00;;;1.20;77.60;;;;;;5117168;27;20073;-84
2021/12/25 10:28:41;;;;;;;0.00;0.00;;;1.40;77.00;;;;;;5117690;27;20370;-84
2021/12/25 10:31:16;;;;;;;0.10;0.10;;;1.50;74.70;;;;;;5116867;27;20054;-84
2021/12/25 10:33:53;;;;;;;0.00;0.00;;;2.20;74.90;;;;;;5116748;27;20051;-83
2021/12/25 10:36:31;;;;;;;0.00;0.00;;;2.40;74.60;;;;;;5111520;27;20032;-84
2021/12/25 10:39:09;;;;;;;0.00;0.00;;;3.30;74.10;;;;;;5104250;28;20060;-84
2021/12/25 10:41:39;;;;;;;0.17;0.17;;;3.90;68.90;;;;;;5096024;28;20040;-84
2021/12/25 10:44:17;;;;;;;0.00;0.00;;;3.90;66.80;;;;;;5096248;28;20047;-84
2021/12/25 10:47:08;;;;;;;0.00;0.00;;;4.10;65.60;;;;;;5095811;28;20608;-84
2021/12/25 10:49:43;;;;;;;0.00;0.00;;;3.40;65.80;;;;;;5096478;28;20051;-84
2021/12/25 10:52:28;;;;;;;0.13;0.13;;;3.20;66.50;;;;;;5118637;28;20062;-84
2021/12/25 10:55:04;;;;;;;;;;;3.30;66.40;;;;;;5107119;27;20130;-84
2021/12/25 10:57:34;;;;;;;0.10;0.10;;;3.70;65.80;;;;;;5125928;27;19919;-84
2021/12/25 11:00:00;;;;;;;8.07;0.52;;;4.40;65.20;;;;;;5102433;28;20520;-85
2021/12/25 11:02:31;;;;;;;0.00;0.00;;;4.50;62.50;;;;;;5129936;28;20045;-85
2021/12/25 11:05:00;;;;;;;0.00;0.00;;;4.60;62.40;;;;;;5114606;28;20278;-85
2021/12/25 11:07:26;;;;;;;0.00;0.00;;;4.90;62.30;;;;;;5114686;28;20055;-85
2021/12/25 11:10:18;;;;;;;0.00;0.00;;;5.40;62.10;;;;;;5115025;28;20059;-85
2021/12/25 11:12:44;;;;;;;0.00;0.00;;;5.40;60.20;;;;;;5131795;27;20525;-84
2021/12/25 11:15:20;;;;;;;0.28;0.15;;;5.60;58.30;;;;;;5114642;28;20054;-85
2021/12/25 11:17:51;;;;;;;0.00;0.00;;;5.30;57.60;;;;;;5104124;28;20497;-85
2021/12/25 11:20:27;;;;;;;0.00;0.00;;;5.50;57.70;;;;;;5124690;27;20047;-85
2021/12/25 11:22:56;;;;;;;0.00;0.00;;;5.70;59.60;;;;;;5114589;28;20062;-84
2021/12/25 11:25:27;;;;;;;0.00;0.00;;;5.40;57.90;;;;;;5115145;28;20059;-85
2021/12/25 11:27:55;;;;;;;0.00;0.00;;;5.10;56.60;;;;;;5108172;28;20058;-85
2021/12/25 11:30:24;;;;;;;0.00;0.00;;;4.60;57.20;;;;;;5109591;28;20039;-83
2021/12/25 11:32:51;;;;;;;0.00;0.00;;;5.00;59.50;;;;;;5114527;28;20047;-84
2021/12/25 11:35:18;;;;;;;0.80;0.30;;;5.10;58.20;;;;;;5115851;28;20043;-83
2021/12/25 11:37:45;;;;;;;0.00;0.00;;;5.40;58.30;;;;;;5116433;28;20195;-84
2021/12/25 11:40:12;;;;;;;0.00;0.00;;;5.10;56.90;;;;;;5116319;28;20085;-84
2021/12/25 11:42:46;;;;;;;0.20;0.00;;;5.10;57.30;;;;;;5133360;27;20047;-83
2021/12/25 11:45:26;;;;;;;0.00;0.00;;;5.30;58.00;;;;;;5112892;28;20036;-84
2021/12/25 11:47:54;;;;;;;0.00;0.00;;;5.30;56.00;;;;;;5131132;28;20043;-84
2021/12/25 11:50:42;;;;;;;0.65;0.38;;;5.30;55.00;;;;;;5116364;28;20558;-84
2021/12/25 11:53:15;;;;;;;0.00;0.00;;;5.50;56.50;;;;;;5110287;28;20048;-84
2021/12/25 11:58:41;;;;;;;0.00;0.00;;;6.60;55.50;;;;;;5112205;28;20064;-84
2021/12/25 12:01:49;;;;;;;1.48;1.38;;;5.60;56.00;;;;;;5112475;28;20126;-84
2021/12/25 12:04:21;;;;;;;0.35;0.35;;;5.80;55.40;;;;;;5018729;28;20049;-84
2021/12/25 12:06:47;;;;;;;0.00;0.00;;;5.60;55.10;;;;;;5025597;28;20136;-83
2021/12/25 12:09:15;;;;;;;0.00;0.00;;;5.70;55.10;;;;;;5038702;28;20087;-84
2021/12/25 12:11:47;;;;;;;0.00;0.00;;;5.90;56.00;;;;;;5038129;28;20467;-84
2021/12/25 12:14:20;;;;;;;0.00;0.00;;;5.20;55.90;;;;;;5037828;28;20037;-84
2021/12/25 12:16:59;;;;;;;0.00;0.00;;;5.20;56.50;;;;;;5037503;28;20131;-84
2021/12/25 12:19:34;;;;;;;0.00;0.00;;;5.00;56.70;;;;;;5021169;28;20049;-84
2021/12/25 12:22:29;;;;;;;0.00;0.00;;;5.10;55.30;;;;;;5021284;28;20078;-84
2021/12/25 12:25:18;;;;;;;0.00;0.00;;;4.40;55.80;;;;;;5037512;28;20167;-83
2021/12/25 12:27:51;;;;;;;0.00;0.00;;;4.20;57.70;;;;;;5021366;28;20041;-84
2021/12/25 12:30:31;;;;;;;0.00;0.00;;;4.10;56.40;;;;;;5020983;28;20136;-85
2021/12/25 12:33:17;;;;;;;0.00;0.00;;;3.90;57.20;;;;;;5021074;28;20488;-84
2021/12/25 12:35:49;;;;;;;0.00;0.00;;;3.30;59.50;;;;;;5014069;28;20601;-84
2021/12/25 12:38:27;;;;;;;0.00;0.00;;;3.10;61.10;;;;;;5030551;28;20049;-85
2021/12/25 12:41:12;;;;;;;0.00;0.00;;;3.00;61.40;;;;;;5057347;28;20430;-85
2021/12/25 12:43:58;;;;;;;0.00;0.00;;;2.80;61.90;;;;;;5052361;28;20048;-85
2021/12/25 12:46:53;;;;;;;0.00;0.00;;;2.40;60.70;;;;;;5054779;28;20574;-85
2021/12/25 12:49:48;;;;;;;0.00;0.00;;;2.50;63.40;;;;;;5055742;28;20055;-86
2021/12/25 12:52:37;;;;;;;0.00;0.00;;;2.30;62.40;;;;;;4998541;28;20062;-86
2021/12/25 12:55:24;;;;;;;0.00;0.00;;;2.20;63.20;;;;;;4998994;28;20042;-86
2021/12/25 12:58:09;;;;;;;0.00;0.00;;;2.10;64.20;;;;;;4998371;28;20054;-85
2021/12/25 13:00:35;;;;;;;0.00;0.00;;;2.20;63.40;;;;;;4999512;28;20053;-86
2021/12/25 13:03:01;;;;;;;0.00;0.00;;;2.10;64.10;;;;;;5000381;28;20508;-85
2021/12/25 13:05:33;;;;;;;0.00;0.00;;;2.00;65.10;;;;;;5000046;28;20041;-85
2021/12/25 13:08:02;;;;;;;0.10;0.05;;;1.90;64.90;;;;;;5000759;28;20099;-85
2021/12/25 13:10:41;;;;;;;0.00;0.00;;;1.70;65.40;;;;;;5000467;28;20497;-85
2021/12/25 13:13:21;;;;;;;0.00;0.00;;;1.60;67.60;;;;;;5038502;28;20067;-85
2021/12/25 13:15:49;;;;;;;0.00;0.00;;;1.50;66.40;;;;;;5059968;28;20063;-84
2021/12/25 13:18:16;;;;;;;0.00;0.00;;;1.50;66.10;;;;;;5076147;28;20051;-85
2021/12/25 13:20:44;;;;;;;0.00;0.00;;;1.60;67.00;;;;;;5077223;28;20086;-81
2021/12/25 13:23:13;;;;;;;0.00;0.00;;;1.30;68.00;;;;;;5063298;28;20056;-85
2021/12/25 13:25:58;;;;;;;0.00;0.00;;;1.10;67.30;;;;;;5080801;28;20190;-84
2021/12/25 13:28:26;;;;;;;0.00;0.00;;;0.90;68.30;;;;;;5103507;27;20062;-85
2021/12/25 13:30:59;;;;;;;0.00;0.00;;;0.90;68.20;;;;;;5120497;27;20047;-84
2021/12/25 13:33:28;;;;;;;0.00;0.00;;;0.80;69.90;;;;;;5138231;27;20505;-82
2021/12/25 13:36:16;;;;;;;0.00;0.00;;;0.80;68.90;;;;;;5137360;27;20051;-82
2021/12/25 13:39:12;;;;;;;0.00;0.00;;;0.70;68.70;;;;;;5118405;27;20435;-82
2021/12/25 13:41:39;;;;;;;;;;;0.70;70.00;;;;;;5118576;27;20054;-83
2021/12/25 13:44:12;;;;;;;0.00;0.00;;;0.80;70.80;;;;;;5134564;27;20295;-83
2021/12/25 13:46:56;;;;;;;0.38;0.38;;;0.40;69.60;;;;;;5118034;27;20055;-83
2021/12/25 13:49:42;;;;;;;0.00;0.00;;;0.50;70.00;;;;;;5118458;27;20532;-83
2021/12/25 13:52:20;;;;;;;0.00;0.00;;;0.50;71.50;;;;;;5118074;27;20047;-83
2021/12/25 13:55:04;;;;;;;0.00;0.00;;;0.40;71.10;;;;;;5118828;27;20035;-83
2021/12/25 13:57:31;;;;;;;0.00;0.00;;;0.30;71.70;;;;;;5117823;27;20051;-83
2021/12/25 14:00:12;;;;;;;0.00;0.00;;;0.30;71.30;;;;;;5134736;27;20047;-85
2021/12/25 14:02:41;;;;;;;0.00;0.00;;;0.30;72.90;;;;;;5118695;27;20058;-83
2021/12/25 14:05:07;;;;;;;0.00;0.00;;;0.30;73.20;;;;;;5117738;27;20039;-82
2021/12/25 14:07:33;;;;;;;0.00;0.00;;;0.20;74.30;;;;;;5117333;27;20498;-84
2021/12/25 14:10:21;;;;;;;0.00;0.00;;;0.20;74.90;;;;;;5117139;27;20579;-86
2021/12/25 14:12:53;;;;;;;0.00;0.00;;;0.10;75.60;;;;;;5117384;27;20043;-84
2021/12/25 14:15:22;;;;;;;0.00;0.00;;;0.00;76.40;;;;;;5117273;27;20047;-84
2021/12/25 14:17:50;;;;;;;0.00;0.00;;;0.00;77.00;;;;;;5117618;27;20058;-90
2021/12/25 14:20:18;;;;;;;0.00;0.00;;;-0.10;79.10;;;;;;5117448;27;20050;-86
2021/12/25 14:22:47;;;;;;;0.00;0.00;;;0.00;80.40;;;;;;5117311;27;20402;-86
2021/12/25 14:25:32;;;;;;;0.00;0.00;;;0.40;80.40;;;;;;5118555;27;20134;-87
2021/12/25 14:28:05;;;;;;;0.00;0.00;;;-0.20;81.20;;;;;;5117625;27;20039;-86
2021/12/25 14:30:35;;;;;;;0.10;0.10;;;-0.20;82.50;;;;;;5117658;28;20039;-82